Time;durP1;ratioP1;P1;durP2;ratioP2;P2;SDS_P1;SDS_P2;PMS_P1;PMS_P2;Temp;Humidity;BMP_temperature;BMP_pressure;BME280_temperature;BME280_humidity;BME280_pressure;Samples;Min_cycle;Max_cycle;Signal;HPM_P1;HPM_P2
2022/09/17 04:15:59;;;;;;;1.40;1.15;;;;;;;9.55;100.00;100026.38;5691968;23;20150;-70
2022/09/17 04:18:25;;;;;;;4.47;1.52;;;;;;;9.50;100.00;100014.44;5018057;28;20037;-71
2022/09/17 04:20:51;;;;;;;1.80;1.08;;;;;;;9.51;100.00;100023.22;5017779;28;20046;-70
2022/09/17 04:23:16;;;;;;;2.22;1.20;;;;;;;9.54;100.00;100036.19;5018158;28;20042;-71
2022/09/17 04:25:42;;;;;;;2.47;1.23;;;;;;;9.48;100.00;100040.38;5013420;28;20042;-70
2022/09/17 04:28:07;;;;;;;4.25;1.75;;;;;;;9.49;100.00;100049.16;4998694;28;20034;-70
2022/09/17 04:30:32;;;;;;;3.28;1.55;;;;;;;9.50;100.00;100048.16;4998343;28;20035;-71
2022/09/17 04:32:58;;;;;;;1.65;1.15;;;;;;;9.48;100.00;100053.66;4998114;28;20387;-70
2022/09/17 04:35:23;;;;;;;2.72;1.50;;;;;;;9.52;100.00;100060.31;4996678;28;20054;-70
2022/09/17 04:37:56;;;;;;;2.63;1.08;;;;;;;9.53;100.00;100050.50;4998133;28;20046;-70
2022/09/17 04:40:24;;;;;;;7.20;1.70;;;;;;;9.52;100.00;100044.34;4997602;28;20042;-71
2022/09/17 04:42:54;;;;;;;5.32;1.85;;;;;;;9.50;100.00;100056.97;4998103;28;20137;-70
2022/09/17 04:45:19;;;;;;;6.57;1.58;;;;;;;9.54;100.00;100056.66;4997988;28;20038;-70
2022/09/17 04:47:44;;;;;;;2.80;1.70;;;;;;;9.52;100.00;100059.47;4994105;28;20711;-70
2022/09/17 04:50:10;;;;;;;2.58;1.70;;;;;;;9.54;100.00;100062.78;4994613;28;20046;-71
2022/09/17 04:52:36;;;;;;;5.28;1.30;;;;;;;9.54;100.00;100064.63;4994759;28;20042;-70
2022/09/17 04:55:02;;;;;;;2.33;1.30;;;;;;;9.55;100.00;100058.31;4994806;28;20042;-71
2022/09/17 04:57:27;;;;;;;3.25;1.55;;;;;;;9.54;100.00;100060.13;4994722;28;20061;-70
2022/09/17 04:59:53;;;;;;;2.17;0.88;;;;;;;9.55;100.00;100060.97;4994681;28;20121;-71
2022/09/17 05:02:18;;;;;;;2.75;1.67;;;;;;;9.56;100.00;100062.63;4994390;28;20406;-71
2022/09/17 05:04:43;;;;;;;2.53;1.42;;;;;;;9.52;100.00;100064.81;4994770;28;20038;-71
2022/09/17 05:07:09;;;;;;;2.22;1.58;;;;;;;9.55;100.00;100063.63;4993626;28;20042;-71
2022/09/17 05:09:34;;;;;;;5.55;1.65;;;;;;;9.56;100.00;100062.63;4994911;28;20046;-70
2022/09/17 05:12:00;;;;;;;3.60;1.98;;;;;;;9.53;100.00;100066.47;4994044;28;20048;-70
2022/09/17 05:14:25;;;;;;;4.85;1.67;;;;;;;9.55;100.00;100074.25;4993251;28;20457;-70
2022/09/17 05:16:51;;;;;;;3.80;1.70;;;;;;;9.54;100.00;100083.25;4994259;28;20383;-71
2022/09/17 05:19:16;;;;;;;1.55;1.15;;;;;;;9.52;100.00;100081.59;4994386;28;20038;-71
2022/09/17 05:21:41;;;;;;;3.65;1.73;;;;;;;9.53;100.00;100087.72;4993934;28;20533;-71
2022/09/17 05:24:07;;;;;;;2.58;1.50;;;;;;;9.49;100.00;100092.53;4994309;28;20053;-71
2022/09/17 05:26:33;;;;;;;3.65;1.92;;;;;;;9.46;100.00;100087.59;4994170;28;20051;-71
2022/09/17 05:28:58;;;;;;;3.45;1.70;;;;;;;9.47;100.00;100086.56;4992945;28;20053;-71
2022/09/17 05:31:24;;;;;;;4.63;1.65;;;;;;;9.47;100.00;100088.41;4994165;28;20133;-71
2022/09/17 05:33:49;;;;;;;5.38;1.83;;;;;;;9.43;100.00;100090.56;4995101;28;20038;-71
2022/09/17 05:36:14;;;;;;;3.60;1.73;;;;;;;9.45;100.00;100093.91;4994858;28;20030;-70
2022/09/17 05:38:40;;;;;;;3.90;2.28;;;;;;;9.46;100.00;100098.22;4994016;28;20124;-71
2022/09/17 05:41:05;;;;;;;3.05;1.98;;;;;;;9.46;100.00;100100.88;4993617;28;20038;-72
2022/09/17 05:43:32;;;;;;;4.50;2.05;;;;;;;9.46;100.00;100100.88;4993814;28;20520;-71
2022/09/17 05:46:05;;;;;;;5.78;2.17;;;;;;;9.45;100.00;100101.03;4993716;28;20046;-71
2022/09/17 05:48:31;;;;;;;3.80;2.00;;;;;;;9.43;100.00;100101.19;4993764;28;20185;-71
2022/09/17 05:50:56;;;;;;;3.47;2.10;;;;;;;9.48;100.00;100112.16;4993300;28;20101;-71
2022/09/17 05:53:22;;;;;;;3.95;1.77;;;;;;;9.44;100.00;100108.16;4993575;28;20034;-64
2022/09/17 05:55:48;;;;;;;6.25;2.08;;;;;;;9.41;100.00;100103.19;4992181;28;20129;-63
2022/09/17 05:58:16;;;;;;;4.97;2.00;;;;;;;9.40;100.00;100103.38;4992191;28;20117;-64
2022/09/17 06:00:42;;;;;;;3.25;1.90;;;;;;;9.36;100.00;100107.34;4993392;28;20497;-64
2022/09/17 06:03:10;;;;;;;4.38;2.22;;;;;;;9.28;100.00;100112.69;4992146;28;20137;-64
2022/09/17 06:05:35;;;;;;;2.67;1.95;;;;;;;9.20;100.00;100118.84;4993347;28;20116;-62
2022/09/17 06:08:01;;;;;;;2.65;1.90;;;;;;;9.17;100.00;100113.84;4992134;28;20540;-64
2022/09/17 06:10:26;;;;;;;3.33;2.25;;;;;;;9.11;100.00;100111.88;4991905;28;20177;-64
2022/09/17 06:12:56;;;;;;;3.33;2.25;;;;;;;9.10;100.00;100123.50;4993398;28;20676;-62
2022/09/17 06:15:22;;;;;;;5.28;2.80;;;;;;;9.04;100.00;100119.69;4993160;28;20524;-63
2022/09/17 06:17:47;;;;;;;3.25;2.15;;;;;;;9.01;100.00;100117.38;4993372;28;20078;-61
2022/09/17 06:20:15;;;;;;;5.35;2.40;;;;;;;8.99;100.00;100129.97;4991629;28;20104;-64
2022/09/17 06:22:40;;;;;;;3.45;2.05;;;;;;;8.97;100.00;100132.78;4993101;28;20448;-64
2022/09/17 06:25:06;;;;;;;4.03;2.58;;;;;;;9.01;100.00;100135.97;4992984;28;20066;-63
2022/09/17 06:27:33;;;;;;;7.53;2.50;;;;;;;8.99;100.00;100129.97;4993099;28;20042;-64
2022/09/17 06:29:59;;;;;;;7.50;2.92;;;;;;;8.94;100.00;100133.13;4991612;28;20511;-62
2022/09/17 06:32:24;;;;;;;6.30;3.00;;;;;;;8.91;100.00;100129.97;4991354;28;20129;-64
2022/09/17 06:34:49;;;;;;;11.75;2.72;;;;;;;8.93;100.00;100133.28;4992807;28;20038;-64
2022/09/17 06:37:15;;;;;;;4.47;2.50;;;;;;;8.95;100.00;100126.81;4992848;28;20401;-64
2022/09/17 06:39:40;;;;;;;5.40;3.15;;;;;;;8.98;100.00;100131.78;4992837;28;20121;-64
2022/09/17 06:42:06;;;;;;;4.45;3.22;;;;;;;8.96;100.00;100117.03;4991104;28;20551;-64
2022/09/17 06:44:32;;;;;;;5.75;3.38;;;;;;;9.03;100.00;100127.81;4992730;28;20035;-64
2022/09/17 06:46:57;;;;;;;6.85;3.38;;;;;;;9.06;100.00;100130.97;4991309;28;20478;-64
2022/09/17 06:49:23;;;;;;;7.88;3.30;;;;;;;9.12;100.00;100138.25;4992662;28;20054;-64
2022/09/17 06:51:48;;;;;;;9.45;3.25;;;;;;;9.19;100.00;100136.63;4992321;28;20038;-64
2022/09/17 06:54:14;;;;;;;7.13;3.65;;;;;;;9.21;100.00;100141.78;4992607;28;20080;-63
2022/09/17 06:56:39;;;;;;;6.78;3.60;;;;;;;9.23;100.00;100134.44;4992480;28;20378;-64
2022/09/17 06:59:05;;;;;;;8.68;2.88;;;;;;;9.29;100.00;100143.59;4992387;28;20074;-65
2022/09/17 07:01:30;;;;;;;7.80;3.50;;;;;;;9.34;100.00;100144.75;4992192;28;20034;-64
2022/09/17 07:03:55;;;;;;;6.15;3.40;;;;;;;9.38;100.00;100135.41;4992478;28;20038;-64
2022/09/17 07:06:21;;;;;;;6.43;3.92;;;;;;;9.42;100.00;100134.09;4992306;28;20136;-64
2022/09/17 07:08:46;;;;;;;7.55;3.10;;;;;;;9.48;100.00;100143.25;4991142;28;20056;-64
2022/09/17 07:11:12;;;;;;;8.15;3.92;;;;;;;9.48;100.00;100136.09;4991610;28;20046;-64
2022/09/17 07:13:38;;;;;;;7.88;3.88;;;;;;;9.54;100.00;100131.94;4992236;28;20042;-63
2022/09/17 07:16:05;;;;;;;7.90;4.68;;;;;;;9.62;100.00;100144.38;4992150;28;20038;-64
2022/09/17 07:18:31;;;;;;;6.05;3.22;;;;;;;9.66;100.00;100149.19;4992132;28;20116;-64
2022/09/17 07:21:01;;;;;;;4.90;3.40;;;;;;;9.74;100.00;100145.69;4991718;28;20095;-64
2022/09/17 07:23:31;;;;;;;11.27;4.47;;;;;;;9.84;100.00;100154.28;4992177;28;20042;-64
2022/09/17 07:26:06;;;;;;;7.30;3.58;;;;;;;9.90;100.00;100155.44;4992173;28;20077;-64
2022/09/17 07:28:31;;;;;;;5.88;3.67;;;;;;;10.00;100.00;100162.22;4992171;28;20485;-64
2022/09/17 07:30:57;;;;;;;7.10;3.78;;;;;;;10.10;100.00;100154.03;4991692;28;20125;-64
2022/09/17 07:33:25;;;;;;;11.50;3.50;;;;;;;10.15;100.00;100150.84;4991995;28;20036;-64
2022/09/17 07:36:00;;;;;;;9.82;3.88;;;;;;;10.13;100.00;100166.19;4991821;28;20522;-64
2022/09/17 07:38:27;;;;;;;7.05;3.53;;;;;;;10.29;100.00;100163.47;4992049;28;20049;-63
2022/09/17 07:40:59;;;;;;;5.65;3.60;;;;;;;10.49;100.00;100170.03;4991709;28;20085;-62
2022/09/17 07:43:27;;;;;;;7.10;3.78;;;;;;;10.54;100.00;100161.53;4991817;28;20046;-63
2022/09/17 07:45:53;;;;;;;10.23;4.22;;;;;;;10.72;100.00;100169.25;4991633;28;20038;-64
2022/09/17 07:48:19;;;;;;;10.30;3.63;;;;;;;10.82;100.00;100172.50;4990410;28;20042;-64
2022/09/17 07:50:45;;;;;;;11.23;4.38;;;;;;;10.83;100.00;100174.19;4991617;28;20392;-64
2022/09/17 07:53:10;;;;;;;6.22;3.40;;;;;;;10.83;100.00;100176.84;4992074;28;20118;-63
2022/09/17 07:55:36;;;;;;;7.43;3.55;;;;;;;10.85;100.00;100182.81;4990513;28;20042;-63
2022/09/17 07:58:01;;;;;;;7.88;3.47;;;;;;;10.84;100.00;100184.66;4991691;28;20401;-64
2022/09/17 08:00:27;;;;;;;5.55;3.15;;;;;;;10.90;100.00;100183.13;4991330;28;20030;-63
2022/09/17 08:02:56;;;;;;;5.47;3.45;;;;;;;10.93;100.00;100181.94;4991800;28;20045;-63
2022/09/17 08:05:23;;;;;;;4.82;3.00;;;;;;;11.04;100.00;100182.34;4991816;28;20038;-63
2022/09/17 08:07:53;;;;;;;5.10;2.80;;;;;;;11.11;100.00;100180.63;4991724;28;20134;-63
2022/09/17 08:10:20;;;;;;;5.43;3.50;;;;;;;11.15;100.00;100181.13;4991284;28;20556;-64
2022/09/17 08:12:50;;;;;;;7.65;3.88;;;;;;;11.20;100.00;100173.38;4991545;28;20054;-64
2022/09/17 08:15:16;;;;;;;11.07;3.90;;;;;;;11.23;100.00;100173.06;4990194;28;20096;-64
2022/09/17 08:17:43;;;;;;;4.05;3.13;;;;;;;11.25;100.00;100179.03;4991595;28;20034;-65
2022/09/17 08:20:09;;;;;;;8.38;3.53;;;;;;;11.28;100.00;100177.81;4990200;28;20047;-65
2022/09/17 08:22:34;;;;;;;8.60;3.20;;;;;;;11.38;100.00;100179.25;4976074;28;20042;-65
2022/09/17 08:25:00;;;;;;;8.88;3.58;;;;;;;11.48;99.47;100181.69;4995268;28;20485;-65
2022/09/17 08:27:25;;;;;;;5.78;3.22;;;;;;;11.58;98.17;100179.56;4994927;28;20065;-64
2022/09/17 08:29:50;;;;;;;6.75;2.83;;;;;;;11.56;96.06;100170.94;4995052;28;20042;-64
2022/09/17 08:32:16;;;;;;;6.18;3.30;;;;;;;11.77;96.06;100182.72;4993335;28;20043;-63
2022/09/17 08:34:41;;;;;;;7.20;3.78;;;;;;;11.77;95.22;100172.06;4995100;28;20532;-64
2022/09/17 08:37:06;;;;;;;4.55;2.58;;;;;;;11.83;93.76;100188.19;4993829;28;20042;-64
2022/09/17 08:39:32;;;;;;;5.40;2.65;;;;;;;11.91;95.54;100188.09;4995108;28;20045;-65
2022/09/17 08:42:17;;;;;;;7.60;3.53;;;;;;;12.00;95.02;100190.69;4994558;28;20389;-62
2022/09/17 08:44:45;;;;;;;8.50;3.15;;;;;;;12.06;93.90;100190.81;4994837;28;20030;-64
2022/09/17 08:47:14;;;;;;;5.60;2.40;;;;;;;12.02;93.23;100191.34;4994801;28;20042;-60
2022/09/17 08:49:39;;;;;;;6.45;2.97;;;;;;;12.03;92.86;100201.84;4996011;28;20092;-64
2022/09/17 08:52:26;;;;;;;4.35;2.83;;;;;;;11.95;95.10;100194.75;4994341;28;20034;-64
2022/09/17 08:55:17;;;;;;;6.53;3.17;;;;;;;11.92;96.86;100202.28;4993558;28;20041;-63
2022/09/17 08:57:42;;;;;;;3.85;2.85;;;;;;;11.84;94.65;100213.88;4993875;28;20543;-61
2022/09/17 09:00:27;;;;;;;6.32;3.15;;;;;;;11.79;95.41;100215.38;4994383;28;20038;-62
2022/09/17 09:03:20;;;;;;;4.22;2.45;;;;;;;11.79;94.80;100207.38;4994461;28;20030;-60
2022/09/17 09:05:55;;;;;;;4.25;2.60;;;;;;;11.85;95.44;100193.34;4994407;28;20552;-62
2022/09/17 09:08:37;;;;;;;4.82;2.50;;;;;;;11.88;94.60;100193.00;4994410;28;20038;-64
2022/09/17 09:11:09;;;;;;;6.57;2.42;;;;;;;11.95;93.29;100191.25;4993887;28;20070;-62
2022/09/17 09:13:46;;;;;;;3.60;2.20;;;;;;;12.23;94.43;100194.09;4993125;28;20096;-65
2022/09/17 09:16:18;;;;;;;7.30;3.10;;;;;;;12.44;91.62;100196.00;4993979;28;20035;-63
2022/09/17 09:18:47;;;;;;;5.82;2.33;;;;;;;12.49;92.06;100188.25;4994325;28;20561;-64
2022/09/17 09:21:35;;;;;;;4.70;2.92;;;;;;;12.76;90.03;100184.03;4993821;28;20030;-64
2022/09/17 09:24:22;;;;;;;6.35;2.33;;;;;;;13.18;92.49;100191.28;4994054;28;20038;-66
2022/09/17 09:27:15;;;;;;;9.32;2.92;;;;;;;13.52;88.51;100193.25;4994020;28;20045;-64
2022/09/17 09:29:50;;;;;;;3.05;1.95;;;;;;;13.52;85.00;100184.41;4994090;28;20034;-64
2022/09/17 09:32:48;;;;;;;6.95;2.30;;;;;;;13.53;85.06;100194.06;4993084;28;20034;-64
2022/09/17 09:35:26;;;;;;;6.00;1.60;;;;;;;13.44;82.94;100190.72;4973425;28;20074;-64
2022/09/17 09:38:19;;;;;;;4.82;1.90;;;;;;;13.43;82.57;100189.06;4993988;28;20038;-64
2022/09/17 09:40:59;;;;;;;5.40;1.77;;;;;;;13.76;83.27;100197.34;4993649;28;20038;-63
2022/09/17 09:43:37;;;;;;;8.88;2.08;;;;;;;13.94;85.77;100201.38;4993932;28;20482;-63
2022/09/17 09:46:27;;;;;;;4.45;2.28;;;;;;;13.88;80.88;100192.25;4993728;28;20043;-64
2022/09/17 09:49:07;;;;;;;2.65;2.15;;;;;;;14.02;81.63;100191.34;4993816;28;20038;-64
2022/09/17 09:52:00;;;;;;;6.60;1.85;;;;;;;13.99;81.06;100194.41;4993543;28;20085;-62
2022/09/17 09:54:47;;;;;;;2.95;1.80;;;;;;;14.24;78.07;100200.13;4993629;28;20034;-61
2022/09/17 09:57:16;;;;;;;4.00;1.85;;;;;;;14.64;77.52;100179.69;4993627;28;20042;-64
2022/09/17 09:59:41;;;;;;;3.50;1.92;;;;;;;15.31;76.88;100196.75;4993535;28;20485;-63
2022/09/17 10:02:07;;;;;;;5.85;2.00;;;;;;;16.02;76.58;100180.00;4992031;28;20045;-63
2022/09/17 10:04:33;;;;;;;3.58;1.60;;;;;;;16.66;68.82;100175.66;4993398;28;20084;-63
2022/09/17 10:07:05;;;;;;;2.55;1.48;;;;;;;17.16;66.62;100178.50;4992036;28;20042;-63
2022/09/17 10:09:33;;;;;;;2.17;1.48;;;;;;;17.65;61.85;100177.69;4993297;28;20061;-62
2022/09/17 10:12:03;;;;;;;4.78;1.60;;;;;;;17.83;60.71;100179.63;4991693;28;20034;-63
2022/09/17 10:14:32;;;;;;;5.13;1.50;;;;;;;17.26;60.40;100173.44;4993521;28;20508;-64
2022/09/17 10:17:20;;;;;;;3.83;1.73;;;;;;;17.15;63.46;100169.59;4993134;28;20069;-62
2022/09/17 10:20:10;;;;;;;3.47;1.52;;;;;;;16.42;66.52;100163.75;4993161;28;20042;-62
2022/09/17 10:22:43;;;;;;;2.60;1.75;;;;;;;15.79;66.36;100172.44;4993031;28;20034;-63
2022/09/17 10:25:29;;;;;;;4.57;1.80;;;;;;;15.82;69.49;100173.84;4993152;28;20062;-64
2022/09/17 10:27:56;;;;;;;2.50;1.50;;;;;;;15.51;70.38;100163.72;4993468;28;20040;-63
2022/09/17 10:30:23;;;;;;;2.45;1.40;;;;;;;15.13;70.58;100167.03;4993068;28;20100;-61
2022/09/17 10:33:28;;;;;;;3.97;1.50;;;;;;;14.84;70.93;100158.31;4993059;28;20069;-62
2022/09/17 10:36:00;;;;;;;2.30;1.52;;;;;;;14.62;72.96;100159.50;4992915;28;20512;-61
2022/09/17 10:38:27;;;;;;;3.45;1.48;;;;;;;15.29;71.41;100155.88;4992726;28;20038;-62
2022/09/17 10:41:07;;;;;;;3.22;1.50;;;;;;;16.27;68.66;100145.22;4992533;28;20378;-62
2022/09/17 10:43:32;;;;;;;2.97;1.70;;;;;;;17.24;62.07;100140.53;4992666;28;20117;-64
2022/09/17 10:45:59;;;;;;;4.03;1.33;;;;;;;17.09;60.20;100146.25;4992174;28;20128;-63
2022/09/17 10:48:30;;;;;;;5.05;1.73;;;;;;;16.96;59.96;100139.09;4992771;28;20042;-64
2022/09/17 10:50:56;;;;;;;1.92;1.38;;;;;;;16.60;62.73;100139.69;4992269;28;20494;-62
2022/09/17 10:53:24;;;;;;;6.03;1.58;;;;;;;16.28;63.71;100142.31;4992570;28;20504;-59
2022/09/17 10:55:58;;;;;;;1.73;1.30;;;;;;;16.04;64.82;100142.19;4992505;28;20513;-63
2022/09/17 10:58:47;;;;;;;3.40;1.35;;;;;;;15.69;64.11;100142.47;4992472;28;20031;-60
2022/09/17 11:01:21;;;;;;;5.47;1.30;;;;;;;15.64;71.86;100137.72;4992172;28;20039;-61
2022/09/17 11:04:05;;;;;;;6.57;1.48;;;;;;;15.59;70.57;100142.06;4992395;28;20038;-62
2022/09/17 11:06:36;;;;;;;2.17;1.48;;;;;;;15.03;68.23;100135.22;4992454;28;20037;-64
2022/09/17 11:09:08;;;;;;;3.40;1.48;;;;;;;14.93;69.17;100137.47;4992341;28;20034;-62
2022/09/17 11:11:55;;;;;;;5.97;1.50;;;;;;;14.79;72.18;100135.81;4991908;28;20113;-61
2022/09/17 11:14:43;;;;;;;4.07;1.35;;;;;;;14.71;72.98;100133.31;4992237;28;20048;-60
2022/09/17 11:17:35;;;;;;;2.13;1.40;;;;;;;14.68;72.95;100134.56;4992136;28;20453;-64
2022/09/17 11:20:18;;;;;;;6.25;1.73;;;;;;;14.54;72.94;100138.22;4992129;28;20470;-65
2022/09/17 11:22:43;;;;;;;1.80;1.50;;;;;;;14.52;70.09;100129.56;4992125;28;20509;-64
2022/09/17 11:25:22;;;;;;;5.47;1.50;;;;;;;14.47;71.76;100126.66;4992205;28;20073;-61
2022/09/17 11:28:10;;;;;;;3.60;1.60;;;;;;;14.53;73.95;100132.03;4992233;28;20030;-64
2022/09/17 11:31:04;;;;;;;1.77;1.08;;;;;;;14.64;71.63;100122.59;4991794;28;20034;-64
2022/09/17 11:34:08;;;;;;;1.50;0.85;;;;;;;14.60;70.48;100126.69;4966691;28;20062;-63
2022/09/17 11:37:16;;;;;;;0.85;0.68;;;;;;;14.65;68.25;100118.88;4991814;28;20148;-63
2022/09/17 11:39:47;;;;;;;1.88;0.88;;;;;;;14.97;67.35;100116.44;4991298;28;20046;-63
2022/09/17 11:42:32;;;;;;;1.30;1.20;;;;;;;15.40;67.28;100119.56;4990599;28;20030;-63
2022/09/17 11:45:21;;;;;;;3.55;0.85;;;;;;;16.01;64.11;100108.50;4990724;28;20034;-63
2022/09/17 11:47:58;;;;;;;5.57;0.93;;;;;;;16.10;62.44;100120.66;4992053;28;20510;-63
2022/09/17 11:50:26;;;;;;;;;;;;;;;15.88;64.48;100128.19;4991991;28;20039;-63
2022/09/17 11:53:04;;;;;;;;;;;;;;;15.82;66.80;100130.88;4992369;28;19930;-63
2022/09/17 11:55:32;;;;;;;1.08;0.95;;;;;;;15.79;66.56;100136.69;4992273;28;19918;-63
2022/09/17 11:58:13;;;;;;;0.80;0.80;;;;;;;15.43;66.76;100149.47;4995954;28;20034;-64
2022/09/17 12:00:46;;;;;;;0.57;0.57;;;;;;;15.20;68.32;100165.19;4995660;28;20038;-64
2022/09/17 12:03:23;;;;;;;3.72;0.93;;;;;;;14.74;75.59;100191.91;4995730;28;20038;-63
2022/09/17 12:05:56;;;;;;;4.25;0.73;;;;;;;14.06;80.19;100179.19;4995839;28;20038;-63
2022/09/17 12:08:36;;;;;;;2.55;0.88;;;;;;;13.78;83.58;100192.63;4995621;28;20057;-63
2022/09/17 12:11:07;;;;;;;3.00;0.80;;;;;;;13.48;84.92;100170.56;4995388;28;20153;-64
2022/09/17 12:13:51;;;;;;;2.47;1.05;;;;;;;13.18;84.24;100167.22;4995784;28;20116;-63
2022/09/17 12:16:32;;;;;;;1.08;0.80;;;;;;;13.00;88.32;100178.34;4995428;28;20050;-63
2022/09/17 12:19:12;;;;;;;0.63;0.63;;;;;;;12.95;87.42;100178.09;4994318;28;20049;-62
2022/09/17 12:21:44;;;;;;;0.73;0.70;;;;;;;12.73;89.62;100176.41;4995210;28;20064;-62
2022/09/17 12:24:26;;;;;;;1.45;0.70;;;;;;;12.61;93.43;100169.91;4995382;28;20144;-63
2022/09/17 12:27:00;;;;;;;1.73;0.73;;;;;;;12.47;97.02;100161.75;4995268;28;20057;-64
2022/09/17 12:29:40;;;;;;;3.45;1.00;;;;;;;12.35;97.45;100154.38;4995373;28;20470;-64
2022/09/17 12:32:33;;;;;;;1.67;1.10;;;;;;;12.29;100.00;100152.47;4995066;28;20034;-63
2022/09/17 12:35:17;;;;;;;2.25;0.88;;;;;;;12.40;100.00;100149.31;4995325;28;20042;-64
2022/09/17 12:38:10;;;;;;;1.98;1.25;;;;;;;12.57;100.00;100153.41;4993960;28;20046;-63
2022/09/17 12:40:45;;;;;;;2.45;1.45;;;;;;;12.75;100.00;100153.81;4994764;28;20037;-61
2022/09/17 12:43:28;;;;;;;5.35;1.60;;;;;;;12.75;100.00;100156.50;4995018;28;20065;-61
2022/09/17 12:46:11;;;;;;;2.65;1.52;;;;;;;12.79;100.00;100148.13;4994946;28;20049;-62
2022/09/17 12:49:04;;;;;;;1.73;1.13;;;;;;;12.81;100.00;100152.25;4994957;28;20434;-62
2022/09/17 12:51:56;;;;;;;2.03;1.15;;;;;;;12.86;100.00;100144.47;4994536;28;20048;-61
2022/09/17 12:55:06;;;;;;;1.70;1.20;;;;;;;12.95;100.00;100147.84;4993690;28;20441;-63
2022/09/17 12:57:42;;;;;;;1.30;1.05;;;;;;;13.15;100.00;100138.16;4994773;28;20409;-63
2022/09/17 13:00:15;;;;;;;0.80;0.68;;;;;;;13.40;100.00;100137.78;4994564;28;20030;-64
2022/09/17 13:03:18;;;;;;;1.83;1.02;;;;;;;13.53;96.11;100130.69;4994584;28;20034;-64
2022/09/17 13:05:59;;;;;;;1.30;0.77;;;;;;;14.10;92.66;100128.75;4994475;28;20038;-63
2022/09/17 13:08:43;;;;;;;4.18;1.10;;;;;;;14.35;88.54;100135.25;4993711;28;20489;-63
2022/09/17 13:11:32;;;;;;;3.00;1.00;;;;;;;14.62;87.91;100130.84;4994158;28;20085;-63
2022/09/17 13:14:03;;;;;;;3.47;1.15;;;;;;;14.82;87.06;100128.19;4994547;28;20030;-64
2022/09/17 13:16:50;;;;;;;1.30;1.10;;;;;;;15.28;85.90;100129.28;4994345;28;20122;-63
2022/09/17 13:19:27;;;;;;;1.90;1.20;;;;;;;16.19;81.79;100119.41;4994362;28;20074;-64
2022/09/17 13:22:00;;;;;;;3.08;0.90;;;;;;;17.43;81.77;100117.19;4993936;28;20037;-62
2022/09/17 13:24:29;;;;;;;1.55;1.10;;;;;;;18.03;71.21;100106.66;4994193;28;20042;-62
2022/09/17 13:26:57;;;;;;;1.83;0.90;;;;;;;18.18;66.83;100105.19;4994306;28;20031;-61
2022/09/17 13:29:45;;;;;;;3.03;0.93;;;;;;;18.20;66.04;100105.00;4994189;28;20030;-60
2022/09/17 13:32:50;;;;;;;1.20;0.70;;;;;;;18.24;64.74;100095.38;4993562;28;20065;-61
2022/09/17 13:35:15;;;;;;;2.15;0.88;;;;;;;18.04;64.90;100098.34;4933742;29;20130;-65
2022/09/17 13:37:51;;;;;;;2.75;1.02;;;;;;;17.21;66.12;100090.66;4983120;28;20097;-62
2022/09/17 13:40:34;;;;;;;2.72;0.90;;;;;;;16.90;70.25;100086.16;4992415;28;20042;-62
2022/09/17 13:43:02;;;;;;;1.70;0.95;;;;;;;16.43;76.67;100090.97;4994027;28;20105;-63
2022/09/17 13:45:29;;;;;;;4.10;1.50;;;;;;;16.45;76.83;100091.59;4993920;28;20045;-63
2022/09/17 13:47:58;;;;;;;2.83;1.45;;;;;;;16.42;79.73;100091.16;4992683;28;20038;-63
2022/09/17 13:50:30;;;;;;;3.83;1.15;;;;;;;16.69;76.42;100086.47;4993340;28;20030;-63
2022/09/17 13:52:58;;;;;;;1.83;1.50;;;;;;;17.27;72.32;100084.38;4993770;28;20053;-63
2022/09/17 13:55:35;;;;;;;1.08;0.90;;;;;;;17.88;70.25;100085.47;4993663;28;20034;-63
2022/09/17 13:58:22;;;;;;;4.93;1.00;;;;;;;17.93;64.19;100082.09;4993774;28;20038;-63
2022/09/17 14:00:59;;;;;;;1.20;0.88;;;;;;;17.66;65.45;100079.66;4993339;28;20037;-63
2022/09/17 14:03:43;;;;;;;3.08;1.45;;;;;;;17.16;63.60;100079.75;4993529;28;20166;-63
2022/09/17 14:06:09;;;;;;;1.52;0.85;;;;;;;16.97;65.29;100083.41;4993446;28;20386;-63
2022/09/17 14:08:44;;;;;;;3.10;1.05;;;;;;;16.73;66.66;100085.03;4993447;28;20042;-62
2022/09/17 14:11:22;;;;;;;1.75;0.70;;;;;;;16.54;65.49;100092.97;4993009;28;20049;-63
2022/09/17 14:13:48;;;;;;;1.73;0.70;;;;;;;16.39;65.43;100089.75;4993406;28;20042;-63
2022/09/17 14:16:41;;;;;;;3.13;0.80;;;;;;;16.18;68.93;100096.25;4993115;28;20038;-61
2022/09/17 14:19:35;;;;;;;3.00;1.05;;;;;;;15.92;69.39;100096.38;4993224;28;20418;-63
2022/09/17 14:22:13;;;;;;;1.40;1.00;;;;;;;15.48;70.72;100087.97;4992934;28;20117;-63
2022/09/17 14:24:41;;;;;;;;;;;;;;;15.42;71.16;100082.59;4993631;28;20125;-63
2022/09/17 14:27:14;;;;;;;1.08;0.90;;;;;;;15.18;72.23;100092.09;4993015;28;20370;-61
2022/09/17 14:29:55;;;;;;;1.33;1.00;;;;;;;15.03;73.93;100091.50;4993045;28;20826;-63
2022/09/17 14:32:41;;;;;;;2.15;1.23;;;;;;;14.87;73.90;100088.19;4992727;28;20121;-63
2022/09/17 14:35:16;;;;;;;2.53;1.05;;;;;;;14.96;74.20;100082.63;4992991;28;20374;-64
2022/09/17 14:37:44;;;;;;;1.58;1.02;;;;;;;14.95;76.49;100086.34;4992881;28;20076;-63
2022/09/17 14:40:15;;;;;;;1.98;1.00;;;;;;;14.88;79.12;100086.34;4992743;28;20088;-63
2022/09/17 14:42:42;;;;;;;3.47;1.50;;;;;;;14.89;74.34;100087.97;4991530;28;20050;-63
2022/09/17 14:45:40;;;;;;;3.53;1.55;;;;;;;14.90;73.45;100089.63;4992851;28;20129;-63
2022/09/17 14:48:29;;;;;;;3.42;0.90;;;;;;;14.89;73.40;100088.81;4992045;28;20050;-64
2022/09/17 14:51:16;;;;;;;3.70;1.08;;;;;;;14.84;73.15;100077.84;4992254;28;20046;-62
2022/09/17 14:53:43;;;;;;;1.73;0.85;;;;;;;14.74;70.40;100076.63;4992631;28;20037;-63
2022/09/17 14:56:12;;;;;;;0.77;0.52;;;;;;;14.82;71.61;100082.63;4992691;28;20133;-64
2022/09/17 14:58:42;;;;;;;0.98;0.80;;;;;;;14.83;68.11;100073.53;4992782;28;20517;-64
2022/09/17 15:01:22;;;;;;;4.43;1.10;;;;;;;14.82;68.37;100081.78;4992440;28;20044;-62
2022/09/17 15:03:47;;;;;;;4.05;1.00;;;;;;;14.77;71.03;100081.56;4992551;28;20066;-62
2022/09/17 15:06:20;;;;;;;1.00;0.70;;;;;;;14.70;69.59;100072.69;4992407;28;20034;-63
2022/09/17 15:08:45;;;;;;;4.15;0.90;;;;;;;14.82;67.55;100087.16;4992505;28;20057;-61
2022/09/17 15:11:12;;;;;;;1.15;0.90;;;;;;;14.79;69.73;100087.53;4992011;28;20038;-61
2022/09/17 15:13:50;;;;;;;1.48;0.98;;;;;;;14.63;70.89;100092.28;4992207;28;20054;-61
2022/09/17 15:16:20;;;;;;;0.98;0.70;;;;;;;14.57;71.87;100078.84;4992168;28;20034;-62
2022/09/17 15:18:49;;;;;;;3.13;1.67;;;;;;;14.49;70.86;100077.19;4992213;28;20045;-63
2022/09/17 15:21:32;;;;;;;2.13;1.13;;;;;;;14.52;71.30;100094.72;4991855;28;20042;-63
2022/09/17 15:24:09;;;;;;;1.77;1.10;;;;;;;14.45;74.82;100091.16;4990936;28;20477;-62
2022/09/17 15:26:38;;;;;;;2.67;1.02;;;;;;;14.38;75.02;100086.59;4992213;28;20042;-61
2022/09/17 15:29:04;;;;;;;3.15;1.00;;;;;;;14.41;74.25;100085.41;4992309;28;20037;-62
2022/09/17 15:31:30;;;;;;;3.30;1.10;;;;;;;14.43;72.43;100079.84;4991279;28;20057;-61
2022/09/17 15:33:59;;;;;;;2.10;1.17;;;;;;;14.56;72.88;100087.94;4992105;28;20457;-61
2022/09/17 15:36:26;;;;;;;4.55;0.80;;;;;;;14.68;72.31;100077.44;4992006;28;20077;-61
2022/09/17 15:38:52;;;;;;;4.00;0.80;;;;;;;14.69;72.19;100074.56;4992368;28;20500;-62
2022/09/17 15:41:23;;;;;;;0.82;0.70;;;;;;;14.82;69.45;100073.75;4991758;28;20035;-63
2022/09/17 15:43:49;;;;;;;1.45;0.80;;;;;;;14.83;71.41;100072.72;4992054;28;20104;-63
2022/09/17 15:46:26;;;;;;;1.90;1.20;;;;;;;14.86;70.17;100075.78;4991852;28;20030;-62
2022/09/17 15:49:00;;;;;;;0.65;0.65;;;;;;;14.77;69.03;100069.00;4991979;28;20066;-63
2022/09/17 15:51:29;;;;;;;1.20;0.65;;;;;;;14.69;71.40;100073.72;4991432;28;20042;-62
2022/09/17 15:54:00;;;;;;;2.10;0.80;;;;;;;14.63;69.74;100065.47;4990650;28;20083;-63
2022/09/17 15:56:44;;;;;;;1.45;0.50;;;;;;;14.56;68.78;100067.31;4991699;28;20062;-63
2022/09/17 15:59:28;;;;;;;1.17;0.93;;;;;;;14.55;71.11;100075.56;4990306;28;20141;-63
2022/09/17 16:02:00;;;;;;;1.02;0.68;;;;;;;14.53;72.21;100072.25;4991333;28;20510;-63
2022/09/17 16:04:33;;;;;;;1.92;0.80;;;;;;;14.44;72.71;100074.25;4991549;28;20034;-63
2022/09/17 16:07:19;;;;;;;1.10;1.00;;;;;;;14.45;70.68;100069.72;4991425;28;20042;-62